Time;durP1;ratioP1;P1;durP2;ratioP2;P2;SDS_P1;SDS_P2;PMS_P1;PMS_P2;Temp;Humidity;BMP_temperature;BMP_pressure;BME280_temperature;BME280_humidity;BME280_pressure;Samples;Min_cycle;Max_cycle;Signal;HPM_P1;HPM_P2
2022/04/20 00:02:17;;;;;;;8.85;3.50;;;;;;;4.41;71.03;99676.02;1775350;79;21046;-61
2022/04/20 00:04:44;;;;;;;4.97;2.90;;;;;;;4.39;71.24;99681.66;1732425;81;21017;-62
2022/04/20 00:07:11;;;;;;;6.75;3.75;;;;;;;4.37;71.55;99684.72;1761285;79;21064;-61
2022/04/20 00:09:37;;;;;;;15.35;3.30;;;;;;;4.35;71.38;99671.00;1754772;80;20953;-61
2022/04/20 00:12:06;;;;;;;6.65;2.85;;;;;;;4.35;71.70;99668.41;1788223;78;22468;-62
2022/04/20 00:14:33;;;;;;;6.65;3.15;;;;;;;4.32;71.83;99668.48;1770379;80;20910;-61
2022/04/20 00:16:59;;;;;;;5.63;3.40;;;;;;;4.31;71.86;99669.35;1788964;80;21449;-61
2022/04/20 00:19:29;;;;;;;3.92;2.77;;;;;;;4.28;72.30;99667.69;1789493;78;21651;-61
2022/04/20 00:21:55;;;;;;;10.75;3.45;;;;;;;4.26;72.34;99662.56;1777109;79;20997;-61
2022/04/20 00:45:57;;;;;;;5.28;3.35;;;;;;;4.15;74.25;99668.41;1486134;94;21220;-62
2022/04/20 00:48:26;;;;;;;7.75;3.67;;;;;;;4.14;73.89;99673.16;1547203;88;21185;-62
2022/04/20 00:50:52;;;;;;;8.83;3.75;;;;;;;4.16;73.80;99676.56;1644423;84;21173;-62
2022/04/20 00:53:19;;;;;;;6.83;3.47;;;;;;;4.16;74.43;99673.98;1774918;78;20941;-62
2022/04/20 00:55:46;;;;;;;7.70;3.42;;;;;;;4.16;73.94;99673.98;1813974;78;20948;-62
2022/04/20 00:58:13;;;;;;;6.47;3.55;;;;;;;4.19;73.92;99679.08;1809253;78;20971;-62
2022/04/20 01:00:40;;;;;;;7.78;3.72;;;;;;;4.18;74.04;99683.85;1807849;78;20961;-62
2022/04/20 01:03:07;;;;;;;6.35;3.70;;;;;;;4.16;74.29;99670.55;1817523;78;21505;-61
2022/04/20 01:05:33;;;;;;;8.60;3.65;;;;;;;4.16;75.08;99665.38;1762217;80;21053;-62
2022/04/20 01:08:00;;;;;;;5.22;3.02;;;;;;;4.14;74.65;99660.69;1763178;78;21056;-62
2022/04/20 01:10:27;;;;;;;6.78;3.33;;;;;;;4.13;74.28;99652.09;1787673;78;21020;-62
2022/04/20 01:12:55;;;;;;;5.37;3.08;;;;;;;4.15;74.31;99649.03;1779445;78;20950;-62
2022/04/20 01:15:21;;;;;;;6.42;3.85;;;;;;;4.20;74.33;99645.91;1747321;80;22439;-62
2022/04/20 01:17:48;;;;;;;5.90;3.37;;;;;;;4.24;74.33;99637.19;1776283;80;20963;-62
2022/04/20 01:20:16;;;;;;;8.45;3.62;;;;;;;4.30;74.28;99636.65;1763115;78;20953;-62
2022/04/20 01:22:43;;;;;;;5.25;3.20;;;;;;;4.34;74.26;99636.97;1758176;81;21016;-62
2022/04/20 01:25:11;;;;;;;10.85;3.98;;;;;;;4.32;74.37;99631.01;1753673;81;21554;-62
2022/04/20 01:27:41;;;;;;;7.50;3.90;;;;;;;4.33;74.43;99633.98;1756471;80;21294;-62
2022/04/20 01:30:09;;;;;;;6.20;3.30;;;;;;;4.33;74.48;99622.36;1786986;80;22143;-62
2022/04/20 01:32:36;;;;;;;7.92;3.40;;;;;;;4.38;74.64;99630.86;1774301;78;20977;-62
2022/04/20 01:35:04;;;;;;;10.05;4.25;;;;;;;4.35;74.52;99616.72;1768215;78;20977;-62
2022/04/20 01:37:31;;;;;;;5.00;3.42;;;;;;;4.41;74.72;99610.95;1747206;80;21033;-62
2022/04/20 01:39:58;;;;;;;5.77;3.17;;;;;;;4.48;74.67;99607.76;1757772;80;22218;-62
2022/04/20 01:42:25;;;;;;;5.37;3.50;;;;;;;4.43;74.60;99607.05;1757010;80;21084;-62
2022/04/20 01:44:52;;;;;;;6.97;3.77;;;;;;;4.45;74.65;99603.54;1757130;80;21095;-62
2022/04/20 01:47:18;;;;;;;8.97;3.77;;;;;;;4.45;74.67;99603.54;1756488;80;20906;-62
2022/04/20 01:49:45;;;;;;;6.30;2.95;;;;;;;4.44;75.11;99611.31;1744812;81;20939;-62
2022/04/20 01:52:12;;;;;;;8.93;3.67;;;;;;;4.38;74.92;99603.72;1765122;79;21503;-62
2022/04/20 01:54:38;;;;;;;7.93;3.13;;;;;;;4.36;74.94;99605.48;1787724;80;20934;-62
2022/04/20 01:57:06;;;;;;;5.58;3.25;;;;;;;4.35;74.97;99606.38;1754360;81;21044;-62
2022/04/20 01:59:32;;;;;;;7.47;2.92;;;;;;;4.34;75.05;99607.24;1760011;80;20978;-62
2022/04/20 02:04:44;;;;;;;5.28;3.20;;;;;;;4.36;75.13;99599.86;1754651;81;22368;-62
2022/04/20 02:07:11;;;;;;;9.23;2.87;;;;;;;4.39;75.20;99595.91;1765605;80;21004;-62
2022/04/20 02:09:38;;;;;;;5.45;2.37;;;;;;;4.41;75.27;99595.88;1748082;80;21509;-62
2022/04/20 02:12:06;;;;;;;7.95;2.95;;;;;;;4.38;75.77;99592.08;1768478;80;20976;-62
2022/04/20 02:14:33;;;;;;;6.42;3.10;;;;;;;4.34;75.42;99586.56;1757880;81;20946;-62
2022/04/20 02:17:00;;;;;;;5.35;3.05;;;;;;;4.32;75.53;99585.77;1766157;81;21120;-62
2022/04/20 02:19:26;;;;;;;7.92;3.20;;;;;;;4.32;75.73;99584.48;1754677;79;21633;-62
2022/04/20 02:21:53;;;;;;;5.10;3.30;;;;;;;4.28;76.85;99578.96;1752957;81;21007;-62
2022/04/20 02:24:20;;;;;;;8.63;3.27;;;;;;;4.21;77.44;99575.23;1764446;79;20980;-62
2022/04/20 02:26:52;;;;;;;8.03;3.60;;;;;;;4.12;77.21;99581.92;1759886;81;21027;-61
2022/04/20 02:29:19;;;;;;;6.55;3.12;;;;;;;4.12;77.21;99581.92;1743815;81;21507;-62
2022/04/20 02:31:45;;;;;;;6.67;2.67;;;;;;;4.10;77.20;99582.39;1748612;80;20985;-62
2022/04/20 02:34:12;;;;;;;5.55;3.30;;;;;;;4.10;77.39;99588.84;1759479;80;21499;-62
2022/04/20 02:36:39;;;;;;;6.87;3.33;;;;;;;4.09;78.68;99579.41;1752463;80;21000;-62
2022/04/20 02:39:06;;;;;;;4.97;2.83;;;;;;;4.06;77.89;99576.87;1748185;81;22300;-62
2022/04/20 02:41:37;;;;;;;5.83;3.33;;;;;;;4.06;78.24;99566.53;1750122;81;21978;-62
2022/04/20 02:44:11;;;;;;;7.45;3.25;;;;;;;4.04;77.95;99576.08;1758021;81;20981;-61
2022/04/20 02:46:39;;;;;;;4.45;3.08;;;;;;;4.05;78.49;99572.59;1751742;80;20969;-61
2022/04/20 02:49:06;;;;;;;5.90;3.33;;;;;;;4.06;78.76;99566.98;1750220;80;21163;-60
2022/04/20 02:51:33;;;;;;;6.20;3.70;;;;;;;4.06;78.99;99576.87;1742155;80;20966;-61
2022/04/20 02:53:59;;;;;;;6.92;3.12;;;;;;;4.05;78.34;99575.18;1760452;80;21204;-61
2022/04/20 02:56:26;;;;;;;7.47;3.65;;;;;;;4.06;78.11;99575.58;1756859;81;20973;-61
2022/04/20 02:58:53;;;;;;;6.20;3.10;;;;;;;4.09;77.89;99576.83;1766684;80;21028;-61
2022/04/20 03:01:19;;;;;;;6.90;3.37;;;;;;;4.12;78.33;99581.92;1772231;80;21009;-61
2022/04/20 03:03:46;;;;;;;8.17;3.20;;;;;;;4.13;78.65;99582.31;1782788;79;20998;-61
2022/04/20 03:06:14;;;;;;;6.15;3.30;;;;;;;4.12;78.33;99569.45;1763543;80;21401;-61
2022/04/20 03:08:41;;;;;;;9.10;3.83;;;;;;;4.13;78.27;99550.02;1767006;80;20936;-61
2022/04/20 03:11:08;;;;;;;8.78;3.67;;;;;;;4.15;78.93;99547.41;1782988;80;21007;-61
2022/04/20 03:13:35;;;;;;;8.78;4.15;;;;;;;4.14;78.94;99551.70;1775652;79;21558;-61
2022/04/20 03:16:01;;;;;;;6.65;4.05;;;;;;;4.13;81.19;99552.60;1746143;80;21077;-61
2022/04/20 03:18:32;;;;;;;6.93;3.50;;;;;;;4.11;80.27;99543.19;1779788;78;21953;-61
2022/04/20 03:20:56;;;;;;;7.45;3.58;;;;;;;4.11;80.46;99549.20;1774717;78;21562;-61
2022/04/20 03:23:23;;;;;;;6.08;3.40;;;;;;;4.07;80.41;99552.75;1758510;80;21064;-61
2022/04/20 03:25:50;;;;;;;10.53;4.72;;;;;;;4.06;80.94;99561.37;1777174;80;21041;-61
2022/04/20 03:28:16;;;;;;;7.03;3.50;;;;;;;4.03;82.03;99558.86;1787422;79;21554;-60
2022/04/20 03:30:43;;;;;;;6.30;3.60;;;;;;;4.02;81.77;99553.30;1735813;81;21536;-61
2022/04/20 03:33:10;;;;;;;6.63;3.73;;;;;;;4.01;82.93;99537.40;1780535;78;21472;-61
2022/04/20 03:35:38;;;;;;;8.55;4.12;;;;;;;4.01;81.51;99536.11;1773689;78;21687;-61
2022/04/20 03:38:09;;;;;;;8.65;3.30;;;;;;;4.03;81.70;99535.61;1788486;78;21022;-61
2022/04/20 03:40:36;;;;;;;8.03;3.92;;;;;;;4.02;80.82;99531.34;1760198;79;20945;-61
2022/04/20 03:43:03;;;;;;;10.60;4.83;;;;;;;4.02;82.09;99528.75;1745796;79;21557;-61
2022/04/20 03:45:33;;;;;;;8.38;4.37;;;;;;;4.01;81.92;99527.06;1758506;79;20929;-61
2022/04/20 03:48:00;;;;;;;12.70;4.12;;;;;;;4.02;81.17;99534.77;1756838;81;20923;-61
2022/04/20 03:50:27;;;;;;;5.80;3.70;;;;;;;4.04;81.43;99534.74;1753679;79;21581;-61
2022/04/20 03:52:54;;;;;;;7.70;4.20;;;;;;;4.05;81.18;99541.59;1754950;79;20992;-61
2022/04/20 03:55:20;;;;;;;12.55;5.37;;;;;;;4.07;80.82;99542.42;1765430;81;21035;-61
2022/04/20 03:57:47;;;;;;;15.38;4.75;;;;;;;4.09;81.57;99550.98;1760467;79;21455;-62
2022/04/20 04:00:15;;;;;;;8.53;4.22;;;;;;;4.07;81.15;99559.21;1752751;81;20937;-62
2022/04/20 04:02:44;;;;;;;7.30;4.05;;;;;;;4.07;81.34;99552.75;1752423;81;21934;-61
2022/04/20 04:05:11;;;;;;;6.92;4.03;;;;;;;4.06;82.16;99558.78;1752073;79;22415;-61
2022/04/20 04:07:38;;;;;;;8.48;4.45;;;;;;;4.07;81.36;99560.50;1742293;79;21681;-61
2022/04/20 04:10:07;;;;;;;8.98;4.70;;;;;;;4.08;81.45;99572.52;1759668;80;21635;-61
2022/04/20 04:12:33;;;;;;;7.50;4.25;;;;;;;4.10;82.26;99570.77;1751858;80;21013;-61
2022/04/20 04:15:00;;;;;;;10.60;4.50;;;;;;;4.11;81.57;99577.62;1778160;80;20992;-61
2022/04/20 04:17:27;;;;;;;9.43;4.12;;;;;;;4.15;81.53;99574.09;1734940;81;21574;-61
2022/04/20 04:19:54;;;;;;;8.58;4.42;;;;;;;4.16;81.26;99565.45;1744991;79;21414;-61
2022/04/20 04:22:21;;;;;;;8.10;3.83;;;;;;;4.18;81.96;99567.56;1740769;81;20977;-61
2022/04/20 04:24:48;;;;;;;5.47;3.80;;;;;;;4.20;81.33;99573.55;1740725;79;26509;-61
2022/04/20 04:27:17;;;;;;;9.13;4.07;;;;;;;4.23;81.67;99576.51;1742861;81;20989;-61
2022/04/20 04:29:44;;;;;;;8.55;3.85;;;;;;;4.23;82.21;99560.55;1737922;81;21541;-62
2022/04/20 04:32:12;;;;;;;8.03;4.22;;;;;;;4.22;81.90;99557.54;1749182;79;22306;-62
2022/04/20 04:34:39;;;;;;;7.45;3.80;;;;;;;4.25;81.44;99562.63;1738797;81;21583;-62
2022/04/20 04:37:09;;;;;;;9.85;4.37;;;;;;;4.29;81.72;99562.59;1747102;79;20964;-62
2022/04/20 04:39:35;;;;;;;10.50;3.83;;;;;;;4.30;81.90;99553.94;1750818;81;21604;-62
2022/04/20 04:42:02;;;;;;;6.85;3.90;;;;;;;4.33;82.51;99545.66;1750711;81;21015;-62
2022/04/20 04:44:51;;;;;;;8.10;3.47;;;;;;;4.34;82.08;99554.25;1750298;81;21100;-62
2022/04/20 04:50:06;;;;;;;7.08;3.20;;;;;;;4.39;82.03;99554.55;1672433;84;22073;-61
2022/04/20 04:52:33;;;;;;;6.33;3.87;;;;;;;4.45;81.99;99559.59;1697452;82;21078;-61
2022/04/20 04:54:59;;;;;;;10.93;4.10;;;;;;;4.51;81.79;99557.30;1707284;84;20935;-60
2022/04/20 04:57:26;;;;;;;8.95;3.98;;;;;;;4.53;82.24;99552.91;1703336;82;21449;-61
2022/04/20 04:59:58;;;;;;;7.27;3.47;;;;;;;4.59;82.03;99556.63;1703291;82;21040;-61
2022/04/20 05:02:25;;;;;;;8.95;4.53;;;;;;;4.66;83.27;99546.55;1695306;83;21090;-61
2022/04/20 05:04:52;;;;;;;9.47;4.03;;;;;;;4.61;82.32;99548.39;1686112;82;20985;-61
2022/04/20 05:07:19;;;;;;;8.65;3.55;;;;;;;4.64;82.63;99550.90;1704443;82;20913;-64
2022/04/20 05:09:46;;;;;;;9.28;3.90;;;;;;;4.68;82.39;99548.66;1706760;82;21282;-63
2022/04/20 05:12:12;;;;;;;7.13;3.53;;;;;;;4.78;82.43;99556.16;1703095;82;20947;-62
2022/04/20 05:14:39;;;;;;;7.35;3.15;;;;;;;4.83;82.15;99549.98;1702125;82;20911;-62
2022/04/20 05:17:08;;;;;;;7.00;3.55;;;;;;;4.87;82.40;99545.56;1687702;82;20970;-62
2022/04/20 05:19:36;;;;;;;6.70;3.37;;;;;;;4.93;82.30;99538.95;1677801;83;21046;-62
2022/04/20 05:22:04;;;;;;;12.90;3.45;;;;;;;5.00;82.70;99539.17;1676117;84;21472;-62
2022/04/20 05:24:32;;;;;;;9.98;3.47;;;;;;;5.01;83.50;99537.43;1696939;82;21034;-62
2022/04/20 05:26:59;;;;;;;8.33;3.55;;;;;;;5.04;83.40;99539.52;1684798;83;21085;-62
2022/04/20 05:29:26;;;;;;;5.10;3.05;;;;;;;5.09;83.75;99532.44;1700889;82;20959;-62
2022/04/20 05:31:55;;;;;;;10.53;3.80;;;;;;;5.15;84.32;99535.30;1704302;82;20905;-63
2022/04/20 05:34:23;;;;;;;10.70;3.87;;;;;;;5.25;83.78;99536.75;1691839;82;22036;-62
2022/04/20 05:42:12;;;;;;;5.60;3.40;;;;;;;5.61;83.33;99536.13;1612853;87;21146;-63
2022/04/20 05:44:39;;;;;;;7.10;3.12;;;;;;;5.81;83.18;99530.79;1620218;87;21079;-63
2022/04/20 05:47:06;;;;;;;9.00;3.50;;;;;;;6.00;83.01;99531.95;1625069;87;22102;-63
2022/04/20 05:49:33;;;;;;;;;;;;;;;6.32;82.79;99524.02;1619218;87;21104;-63
2022/04/20 05:52:02;;;;;;;7.37;3.02;;;;;;;6.73;82.69;99525.22;1620597;87;20234;-63
2022/04/20 05:54:28;;;;;;;6.53;3.03;;;;;;;7.09;81.92;99511.39;1601045;85;33887;-64
2022/04/20 05:56:56;;;;;;;7.20;4.00;;;;;;;7.22;81.19;99513.53;1588430;88;21052;-63
2022/04/20 05:59:22;;;;;;;6.15;3.33;;;;;;;7.34;81.05;99527.38;1618889;87;21631;-63
2022/04/20 06:01:49;;;;;;;10.10;3.10;;;;;;;7.31;80.49;99520.55;1587188;88;21182;-64
2022/04/20 06:04:16;;;;;;;6.05;3.15;;;;;;;7.22;80.71;99524.75;1618042;87;21096;-64
2022/04/20 06:06:43;;;;;;;4.90;2.87;;;;;;;7.06;80.51;99518.00;1596399;88;21064;-64
2022/04/20 06:09:11;;;;;;;6.90;3.72;;;;;;;6.99;80.54;99511.77;1583278;88;21207;-64
2022/04/20 06:11:38;;;;;;;10.13;4.95;;;;;;;6.93;80.78;99512.39;1555169;90;21206;-64
2022/04/20 06:14:05;;;;;;;8.48;4.42;;;;;;;6.98;80.72;99511.39;1587449;88;21743;-64
2022/04/20 06:16:33;;;;;;;10.23;5.33;;;;;;;6.85;80.33;99509.22;1610844;85;21168;-64
2022/04/20 06:19:00;;;;;;;;;;;;;;;6.85;80.69;99522.64;1637787;85;21534;-63
2022/04/20 06:21:26;;;;;;;8.15;3.17;;;;;;;7.04;81.04;99528.03;1634780;85;20240;-63
2022/04/20 06:23:54;;;;;;;9.90;3.80;;;;;;;7.40;81.39;99522.80;1642833;85;21971;-64
2022/04/20 06:26:21;;;;;;;4.10;2.17;;;;;;;7.64;79.69;99517.55;1633812;86;22252;-63
2022/04/20 06:28:48;;;;;;;5.10;2.62;;;;;;;7.66;79.40;99518.35;1664088;84;21521;-64
2022/04/20 06:31:15;;;;;;;6.10;2.43;;;;;;;7.76;79.11;99518.86;1660861;84;21541;-63
2022/04/20 06:33:42;;;;;;;6.35;3.02;;;;;;;7.77;79.12;99522.69;1667391;84;21379;-64
2022/04/20 06:36:08;;;;;;;4.78;2.37;;;;;;;7.89;79.16;99510.11;1645697;85;21291;-63
2022/04/20 06:38:36;;;;;;;4.62;2.30;;;;;;;7.94;78.68;99505.13;1636427;85;21108;-64
2022/04/20 06:41:02;;;;;;;3.98;1.92;;;;;;;8.08;78.73;99498.06;1624062;85;21017;-64
2022/04/20 06:43:29;;;;;;;4.55;2.20;;;;;;;8.22;78.10;99491.84;1612723;86;21631;-63
2022/04/20 06:45:57;;;;;;;4.42;2.35;;;;;;;8.29;77.96;99492.00;1655018;85;21111;-62
2022/04/20 06:48:25;;;;;;;4.50;2.37;;;;;;;8.47;78.34;99487.80;1630748;85;21600;-63
2022/04/20 06:50:52;;;;;;;3.98;2.05;;;;;;;8.60;76.45;99501.14;1631809;85;20981;-63
2022/04/20 06:58:55;;;;;;;5.95;2.22;;;;;;;8.63;74.70;99480.66;1627341;85;21041;-63
2022/04/20 07:01:22;;;;;;;3.58;1.90;;;;;;;8.74;72.81;99473.22;1607472;86;21266;-62
2022/04/20 07:03:49;;;;;;;2.85;1.77;;;;;;;8.67;73.91;99464.81;1622343;86;21007;-62
2022/04/20 07:06:16;;;;;;;3.40;1.72;;;;;;;8.70;74.25;99469.89;1657152;85;21043;-62
2022/04/20 07:08:43;;;;;;;4.83;2.40;;;;;;;9.07;75.10;99464.80;1654075;84;21036;-63
2022/04/20 07:11:10;;;;;;;5.65;2.27;;;;;;;9.36;72.43;99459.59;1660576;84;20948;-63
2022/04/20 07:13:37;;;;;;;5.42;2.20;;;;;;;9.69;72.96;99449.77;1638325;85;21094;-63
2022/04/20 07:16:05;;;;;;;4.25;2.05;;;;;;;9.67;71.78;99459.45;1622377;86;21057;-63
2022/04/20 07:18:31;;;;;;;6.55;2.45;;;;;;;9.84;72.36;99452.49;1609493;87;21667;-63
2022/04/20 07:20:59;;;;;;;5.20;1.83;;;;;;;10.02;73.04;99442.91;1639073;85;21007;-63
2022/04/20 07:23:26;;;;;;;3.42;1.90;;;;;;;9.95;70.73;99444.16;1671883;84;21070;-63
2022/04/20 07:25:53;;;;;;;3.12;2.12;;;;;;;9.82;69.87;99432.62;1671614;84;21119;-64
2022/04/20 07:28:20;;;;;;;3.42;2.08;;;;;;;9.88;71.18;99423.19;1674886;84;21667;-64
2022/04/20 07:30:47;;;;;;;4.03;2.10;;;;;;;9.80;69.88;99420.11;1671826;84;21634;-63
2022/04/20 07:33:16;;;;;;;3.67;2.05;;;;;;;9.77;68.92;99434.60;1625505;87;21092;-63
2022/04/20 07:35:51;;;;;;;4.00;1.98;;;;;;;9.80;67.90;99431.84;1651811;85;21748;-62
2022/04/20 07:38:25;;;;;;;2.55;1.82;;;;;;;10.07;69.30;99427.88;1642198;85;21204;-65
2022/04/20 07:40:55;;;;;;;2.80;1.60;;;;;;;10.47;70.35;99425.92;1650915;85;21080;-63
2022/04/20 07:43:26;;;;;;;3.02;1.67;;;;;;;10.72;69.44;99427.23;1660663;85;21575;-64
2022/04/20 07:45:53;;;;;;;4.42;1.65;;;;;;;10.94;68.01;99433.00;1655829;85;20969;-64
2022/04/20 07:48:20;;;;;;;1.70;1.50;;;;;;;11.06;67.65;99428.92;1623076;86;21097;-63
2022/04/20 07:50:47;;;;;;;2.60;1.60;;;;;;;10.98;66.29;99420.64;1635396;86;21062;-63
2022/04/20 07:53:13;;;;;;;3.02;1.72;;;;;;;11.08;66.32;99419.67;1662257;84;20987;-63
2022/04/20 07:55:46;;;;;;;2.85;1.42;;;;;;;11.41;68.28;99411.28;1669048;85;21086;-63
2022/04/20 07:58:09;;;;;;;2.62;1.60;;;;;;;11.61;65.78;99432.86;1670424;85;21561;-63
2022/04/20 08:00:36;;;;;;;2.67;1.52;;;;;;;11.60;64.07;99425.95;1650778;85;21602;-64
2022/04/20 08:03:17;;;;;;;3.05;1.45;;;;;;;11.86;65.98;99411.42;1656220;85;21270;-64
2022/04/20 08:05:50;;;;;;;2.72;1.32;;;;;;;12.01;65.96;99412.30;1632563;85;21576;-62
2022/04/20 08:08:18;;;;;;;4.10;1.82;;;;;;;12.05;63.18;99416.44;1666969;84;21098;-62
2022/04/20 08:10:45;;;;;;;;;;;;;;;11.88;58.67;99424.43;1615054;87;20929;-63
2022/04/20 08:15:57;;;;;;;3.27;1.25;;;;;;;12.01;61.57;99410.99;1672217;84;22361;-63
2022/04/20 08:18:26;;;;;;;1.80;1.12;;;;;;;12.21;57.41;99417.23;1672438;84;21047;-60
2022/04/20 08:20:53;;;;;;;2.17;1.40;;;;;;;12.13;57.07;99429.93;1672336;84;20936;-63
2022/04/20 08:23:20;;;;;;;2.05;1.55;;;;;;;12.04;57.25;99407.75;1670117;86;21560;-62
2022/04/20 08:25:47;;;;;;;;;;;;;;;12.05;55.22;99411.21;1671778;84;21604;-62
2022/04/20 08:28:14;;;;;;;2.83;1.57;;;;;;;12.25;57.82;99416.11;1669610;85;21376;-60
2022/04/20 08:30:41;;;;;;;2.45;1.40;;;;;;;12.20;57.81;99412.91;1668804;84;27252;-63
2022/04/20 08:33:08;;;;;;;4.22;1.52;;;;;;;12.13;56.93;99419.45;1678735;84;21042;-62
2022/04/20 08:35:37;;;;;;;3.25;1.75;;;;;;;12.03;54.46;99439.23;1669723;85;21000;-61
2022/04/20 08:38:25;;;;;;;2.52;1.30;;;;;;;11.97;54.63;99429.13;1666813;85;20964;-60
2022/04/20 08:41:00;;;;;;;3.25;1.40;;;;;;;12.06;56.11;99445.13;1669065;84;21576;-61
2022/04/20 08:43:29;;;;;;;2.35;1.22;;;;;;;12.17;55.00;99420.95;1668934;86;21067;-62
2022/04/20 08:46:01;;;;;;;2.65;1.65;;;;;;;12.02;54.75;99429.70;1647642;85;21092;-63
2022/04/20 08:48:29;;;;;;;10.28;1.70;;;;;;;12.14;56.31;99420.30;1645924;85;21102;-64
2022/04/20 08:50:57;;;;;;;3.10;1.50;;;;;;;12.22;54.83;99450.32;1672866;84;21442;-62
2022/04/20 08:53:24;;;;;;;3.05;1.67;;;;;;;12.28;56.13;99419.84;1642223;84;21476;-63
2022/04/20 08:57:15;;;;;;;;;;;;;;;12.21;53.25;99411.13;1676043;84;21006;-63
2022/04/20 08:58:20;;;;;;;2.35;1.45;;;;;;;12.30;55.39;99411.45;1666057;84;20184;-63
2022/04/20 09:00:47;;;;;;;2.70;1.47;;;;;;;12.33;54.99;99425.30;1672676;84;21062;-62
2022/04/20 09:03:16;;;;;;;3.98;1.72;;;;;;;12.43;54.18;99410.70;1641739;85;21553;-63
2022/04/20 09:05:58;;;;;;;2.80;1.47;;;;;;;12.39;51.54;99409.22;1661443;86;22452;-63
2022/04/20 09:08:27;;;;;;;3.25;1.20;;;;;;;12.31;52.17;99433.23;1665402;84;21058;-65
2022/04/20 09:10:56;;;;;;;4.83;1.40;;;;;;;11.82;50.14;99409.42;1674524;84;20971;-64
2022/04/20 09:13:35;;;;;;;2.75;1.32;;;;;;;11.83;51.25;99415.02;1655677;84;20948;-64
2022/04/20 09:16:19;;;;;;;6.25;1.32;;;;;;;11.52;48.87;99419.84;1668661;85;21007;-64
2022/04/20 09:21:22;;;;;;;4.70;1.55;;;;;;;11.49;51.48;99394.34;1852526;76;23381;-62
2022/04/20 09:23:54;;;;;;;4.60;1.30;;;;;;;11.34;49.35;99403.86;1819063;78;21068;-63
2022/04/20 09:26:23;;;;;;;2.62;1.45;;;;;;;11.30;49.89;99409.73;1803650;78;21437;-63
2022/04/20 09:29:11;;;;;;;1.45;1.20;;;;;;;11.31;50.70;99383.96;1819124;77;21100;-63
2022/04/20 09:31:51;;;;;;;4.37;1.35;;;;;;;11.56;51.20;99387.82;1803549;77;20973;-63
2022/04/20 09:34:34;;;;;;;2.67;1.45;;;;;;;11.94;51.51;99390.06;1810929;77;20997;-63
2022/04/20 09:37:14;;;;;;;3.40;1.55;;;;;;;12.01;50.53;99388.75;1820132;78;20923;-63
2022/04/20 09:39:46;;;;;;;2.50;1.25;;;;;;;11.93;50.56;99378.76;1820807;77;21044;-65
2022/04/20 09:42:14;;;;;;;2.58;1.20;;;;;;;12.07;50.40;99377.92;1813371;77;20977;-65
2022/04/20 09:45:06;;;;;;;1.80;1.20;;;;;;;12.18;50.05;99385.98;1785469;78;20965;-63
2022/04/20 09:50:30;;;;;;;2.42;1.50;;;;;;;12.13;50.53;99397.66;1808360;78;21692;-63
2022/04/20 09:52:59;;;;;;;2.67;1.45;;;;;;;12.09;50.08;99384.75;1806868;78;21053;-63
2022/04/20 09:55:37;;;;;;;2.90;1.57;;;;;;;11.96;50.21;99419.57;1812609;77;21144;-63
2022/04/20 09:58:19;;;;;;;5.00;1.57;;;;;;;11.80;50.40;99397.36;1807702;77;21529;-64
2022/04/20 10:00:51;;;;;;;2.05;1.35;;;;;;;11.73;50.40;99386.86;1806590;77;21052;-63
2022/04/20 10:03:31;;;;;;;3.90;1.30;;;;;;;11.60;49.91;99405.04;1797701;79;21105;-63
2022/04/20 10:06:02;;;;;;;1.65;1.27;;;;;;;11.65;50.33;99404.32;1800942;78;21217;-64
2022/04/20 10:08:29;;;;;;;5.37;1.42;;;;;;;11.71;50.40;99392.66;1815969;77;21048;-64
2022/04/20 10:10:57;;;;;;;2.25;1.20;;;;;;;11.82;50.21;99415.96;1796120;77;24958;-65
2022/04/20 10:13:27;;;;;;;3.30;1.32;;;;;;;11.97;50.47;99395.11;1816648;77;21032;-65
2022/04/20 10:18:47;;;;;;;3.33;1.50;;;;;;;11.78;50.30;99397.44;1800010;78;21135;-63
2022/04/20 10:21:14;;;;;;;4.12;1.62;;;;;;;11.72;50.70;99379.95;1823063;77;21648;-64
2022/04/20 10:23:52;;;;;;;2.15;1.42;;;;;;;11.63;50.54;99391.78;1821161;78;20985;-63
2022/04/20 10:26:17;;;;;;;2.12;1.50;;;;;;;11.57;50.23;99407.83;1808786;77;21641;-62
2022/04/20 10:29:15;;;;;;;2.22;1.50;;;;;;;11.47;50.45;99380.50;1802993;77;21048;-65
2022/04/20 10:32:09;;;;;;;2.60;1.40;;;;;;;11.50;50.49;99413.02;1821673;77;22422;-64
2022/04/20 10:34:41;;;;;;;2.33;1.80;;;;;;;11.50;50.39;99407.78;1815190;77;28769;-62
2022/04/20 10:37:13;;;;;;;7.85;2.25;;;;;;;11.62;50.54;99400.55;1817443;77;20998;-62
2022/04/20 10:39:41;;;;;;;3.67;1.57;;;;;;;11.69;50.60;99390.13;1806026;77;21546;-62
2022/04/20 10:42:20;;;;;;;3.80;1.52;;;;;;;11.86;50.50;99406.19;1795624;77;21063;-62
2022/04/20 10:44:58;;;;;;;2.30;1.55;;;;;;;11.57;48.44;99429.59;1804763;77;21633;-62
2022/04/20 10:47:29;;;;;;;2.25;1.40;;;;;;;11.64;49.72;99402.14;1805844;77;21119;-61
2022/04/20 10:50:19;;;;;;;3.05;1.80;;;;;;;11.72;49.31;99402.19;1807556;77;21022;-62
2022/04/20 10:52:58;;;;;;;9.48;1.60;;;;;;;11.79;49.62;99417.45;1807935;77;21036;-62
2022/04/20 10:55:33;;;;;;;4.08;1.67;;;;;;;11.81;49.28;99416.04;1810620;77;21008;-61
2022/04/20 10:58:07;;;;;;;5.12;2.37;;;;;;;11.74;48.84;99436.48;1810985;77;21076;-64
2022/04/20 11:00:36;;;;;;;4.37;2.02;;;;;;;11.67;49.17;99416.82;1797649;78;21574;-62
2022/04/20 11:03:06;;;;;;;3.50;1.42;;;;;;;11.73;48.31;99400.77;1823493;78;21001;-62
2022/04/20 11:05:49;;;;;;;6.67;1.87;;;;;;;11.75;49.20;99443.39;1827125;77;21024;-62
2022/04/20 11:08:17;;;;;;;2.87;1.35;;;;;;;11.81;48.72;99386.80;1822489;78;21083;-62
2022/04/20 11:19:53;;;;;;;4.40;1.72;;;;;;;12.03;48.61;99376.43;1822406;78;21047;-62
2022/04/20 11:22:24;;;;;;;2.30;1.70;;;;;;;11.93;47.63;99413.21;1826694;78;21036;-62
2022/04/20 11:25:05;;;;;;;3.20;1.85;;;;;;;11.93;48.28;99380.50;1817254;78;21754;-62
2022/04/20 11:27:37;;;;;;;4.70;1.55;;;;;;;11.95;47.19;99395.66;1819121;77;20970;-61
2022/04/20 11:30:12;;;;;;;2.55;1.27;;;;;;;11.98;48.25;99381.09;1816685;78;20938;-61
2022/04/20 11:32:39;;;;;;;2.75;1.52;;;;;;;12.09;48.09;99420.55;1812780;77;21009;-61
2022/04/20 11:35:15;;;;;;;2.77;1.55;;;;;;;12.01;47.91;99396.60;1807208;78;21001;-62
2022/04/20 11:37:59;;;;;;;3.67;1.62;;;;;;;12.07;47.62;99391.00;1801793;78;21050;-61
2022/04/20 11:40:30;;;;;;;2.15;1.40;;;;;;;12.12;47.77;99396.81;1800973;78;21108;-61
2022/04/20 11:43:10;;;;;;;2.42;1.30;;;;;;;12.14;47.73;99384.49;1803195;78;20993;-62
2022/04/20 11:45:38;;;;;;;3.15;1.62;;;;;;;12.06;47.63;99391.95;1801277;78;20962;-62
2022/04/20 11:48:06;;;;;;;4.97;1.60;;;;;;;11.98;46.49;99387.62;1805203;78;20981;-61
2022/04/20 11:50:34;;;;;;;2.50;1.37;;;;;;;11.91;47.12;99419.02;1816375;78;21632;-61
2022/04/20 11:53:03;;;;;;;2.10;1.37;;;;;;;11.83;46.62;99396.71;1818368;78;20989;-62
2022/04/20 11:55:30;;;;;;;6.53;1.95;;;;;;;11.88;47.04;99383.87;1825154;78;20985;-62
2022/04/20 11:58:14;;;;;;;6.33;1.72;;;;;;;11.83;46.77;99382.33;1823636;78;21593;-61
2022/04/20 12:00:46;;;;;;;2.45;1.50;;;;;;;11.91;46.27;99390.24;1818671;78;21047;-61
2022/04/20 12:03:15;;;;;;;1.80;1.37;;;;;;;11.85;46.35;99405.36;1807580;78;21083;-61
2022/04/20 12:05:43;;;;;;;3.65;1.42;;;;;;;11.92;46.18;99384.06;1827472;77;20990;-61
2022/04/20 12:08:11;;;;;;;8.68;1.42;;;;;;;11.98;46.48;99398.09;1756687;77;21760;-61
2022/04/20 12:10:39;;;;;;;3.92;1.37;;;;;;;12.05;46.51;99370.17;1825333;78;21008;-61
2022/04/20 12:13:07;;;;;;;3.52;1.20;;;;;;;12.17;46.23;99384.31;1817565;78;21040;-61
2022/04/20 12:15:34;;;;;;;;;;;;;;;12.31;46.14;99366.00;1814030;78;22580;-62
2022/04/20 12:18:03;;;;;;;3.65;1.10;;;;;;;12.37;46.11;99365.27;1784012;78;20158;-61
2022/04/20 12:20:32;;;;;;;1.70;1.20;;;;;;;12.60;46.08;99346.36;1822060;77;21529;-61
2022/04/20 12:23:07;;;;;;;;;;;;;;;12.75;45.80;99375.55;1825296;77;21778;-62
2022/04/20 12:25:33;;;;;;;2.98;1.40;;;;;;;12.81;45.58;99358.61;1823047;77;20193;-61
2022/04/20 12:28:35;;;;;;;3.72;1.40;;;;;;;12.96;45.33;99365.98;1820208;78;22050;-61
2022/04/20 12:30:45;;;;;;;4.75;1.47;;;;;;;13.18;45.87;99351.89;1816093;78;21044;-61
2022/04/20 12:33:23;;;;;;;5.67;1.45;;;;;;;13.42;45.54;99348.67;1826019;77;21036;-61
2022/04/20 12:36:08;;;;;;;2.87;1.15;;;;;;;13.46;45.67;99344.90;1817659;78;21081;-62
2022/04/20 12:38:48;;;;;;;4.22;1.47;;;;;;;13.47;45.52;99340.48;1824854;77;20898;-61
2022/04/20 12:41:44;;;;;;;3.58;1.25;;;;;;;13.33;44.49;99385.95;1817241;77;21121;-62
2022/04/20 12:44:37;;;;;;;3.02;1.45;;;;;;;12.97;44.66;99367.20;1803390;79;20977;-62
2022/04/20 12:47:15;;;;;;;5.92;2.05;;;;;;;12.59;43.79;99381.83;1800488;79;21807;-61
2022/04/20 12:49:53;;;;;;;2.85;1.40;;;;;;;12.49;44.30;99357.96;1799849;79;21020;-61